Kissho — JD3124 — position and weather

sailwx.info

Track history (hours):
 
Tides and Currents Weather Stations Pressure Air Temp Water Temp Dewpoint Dewpoint Depression Visibility Wind Speed Wind Dir Waves Ship Positions

Kissho

Last reported at 2015-Jan-10 10:19 UTC. Time now 2015-Jan-25 18:20 UTC.
Position N 35°24' E 139°49'.
Warning: this ship's position is 15 days out of date.

Length 30 m.

Type: Tug. MMSI: 431002115.

Date/timePositionNaut miles runAvg speedWind from/ knotsBaromVisibWave heightAir tempDewpointWater temp
2015-Jan-10 10:19N 35°24' E 139°49'5 6.0
2015-Jan-10 09:27N 35°20' E 139°45'6 6.1
2015-Jan-10 08:25N 35°14' E 139°47'5 5.1
2015-Jan-10 07:31N 35°10' E 139°47'4 4.2
2015-Jan-10 06:33N 35°06' E 139°47'7 7.1
2015-Jan-10 05:31N 35°01' E 139°40'  
2015-Jan-07 08:20N 34°33' E 135°03'4 0.4
2015-Jan-06 22:33N 34°37' E 135°02'9 9.7
2015-Jan-06 21:34N 34°37' E 135°14'10 9.6
2015-Jan-06 20:29N 34°39' E 135°26'1 0.1
2015-Jan-06 03:20N 34°39' E 135°27'8 3.8
2015-Jan-06 01:15N 34°32' E 135°23'2 2.0
2015-Jan-06 00:06N 34°34' E 135°22'2 3.6
2015-Jan-05 23:33N 34°36' E 135°22'4 4.0
2015-Jan-05 22:33N 34°39' E 135°25'2 0.4
2015-Jan-05 16:27N 34°39' E 135°28'0 0.0
2015-Jan-05 15:15N 34°39' E 135°28'0 0.0
2015-Jan-05 14:33N 34°39' E 135°28'0 0.0
2015-Jan-05 13:14N 34°39' E 135°28'2 0.4
2015-Jan-05 07:33N 34°39' E 135°25'4 3.6
2015-Jan-05 06:33N 34°41' E 135°21'  
2015-Jan-02 07:26N 34°39' E 135°28'0 0.0
2015-Jan-02 06:20N 34°39' E 135°28'0 0.0
2015-Jan-02 04:20N 34°39' E 135°28'0 0.0
2015-Jan-02 03:14N 34°39' E 135°28'0 0.0
2015-Jan-01 04:20N 34°39' E 135°28'0 0.0
2015-Jan-01 00:14N 34°39' E 135°28'0 0.0
2014-Dec-31 23:08N 34°39' E 135°28'0 0.0
2014-Dec-31 21:20N 34°39' E 135°28'0 0.0
2014-Dec-31 20:32N 34°39' E 135°28'0 0.0
2014-Dec-31 19:32N 34°39' E 135°28'  
Track history (hours):
 
Tides and Currents Weather Stations Pressure Air Temp Water Temp Dewpoint Dewpoint Depression Visibility Wind Speed Wind Dir Waves Ship Positions

Kissho

Last reported at 2015-Jan-10 10:19 UTC. Time now 2015-Jan-25 18:20 UTC.
Position N 35°24' E 139°49'.
Warning: this ship's position is 15 days out of date.

Length 30 m.

Type: Tug. MMSI: 431002115.

Date/timePositionNaut miles runAvg speedWind from/ knotsBaromVisibWave heightAir tempDewpointWater temp
2015-Jan-10 10:19N 35°24' E 139°49'5 6.0
2015-Jan-10 09:27N 35°20' E 139°45'6 6.1
2015-Jan-10 08:25N 35°14' E 139°47'5 5.1
2015-Jan-10 07:31N 35°10' E 139°47'4 4.2
2015-Jan-10 06:33N 35°06' E 139°47'7 7.1
2015-Jan-10 05:31N 35°01' E 139°40'  
2015-Jan-07 08:20N 34°33' E 135°03'4 0.4
2015-Jan-06 22:33N 34°37' E 135°02'9 9.7
2015-Jan-06 21:34N 34°37' E 135°14'10 9.6
2015-Jan-06 20:29N 34°39' E 135°26'1 0.1
2015-Jan-06 03:20N 34°39' E 135°27'8 3.8
2015-Jan-06 01:15N 34°32' E 135°23'2 2.0
2015-Jan-06 00:06N 34°34' E 135°22'2 3.6
2015-Jan-05 23:33N 34°36' E 135°22'4 4.0
2015-Jan-05 22:33N 34°39' E 135°25'2 0.4
2015-Jan-05 16:27N 34°39' E 135°28'0 0.0
2015-Jan-05 15:15N 34°39' E 135°28'0 0.0
2015-Jan-05 14:33N 34°39' E 135°28'0 0.0
2015-Jan-05 13:14N 34°39' E 135°28'2 0.4
2015-Jan-05 07:33N 34°39' E 135°25'4 3.6
2015-Jan-05 06:33N 34°41' E 135°21'  
2015-Jan-02 07:26N 34°39' E 135°28'0 0.0
2015-Jan-02 06:20N 34°39' E 135°28'0 0.0
2015-Jan-02 04:20N 34°39' E 135°28'0 0.0
2015-Jan-02 03:14N 34°39' E 135°28'0 0.0
2015-Jan-01 04:20N 34°39' E 135°28'0 0.0
2015-Jan-01 00:14N 34°39' E 135°28'0 0.0
2014-Dec-31 23:08N 34°39' E 135°28'0 0.0
2014-Dec-31 21:20N 34°39' E 135°28'0 0.0
2014-Dec-31 20:32N 34°39' E 135°28'0 0.0
2014-Dec-31 19:32N 34°39' E 135°28'  

Dump ship's entire track history